createdAt,value
2022-08-05T00:02:57.162Z,19.70
2022-08-05T00:08:03.300Z,19.60
2022-08-05T00:13:07.142Z,19.60
2022-08-05T00:18:22.620Z,19.50
2022-08-05T00:23:44.469Z,19.50
2022-08-05T00:28:50.895Z,19.40
2022-08-05T00:34:56.279Z,19.30
2022-08-05T00:39:19.639Z,19.30
2022-08-05T00:44:30.732Z,19.20
2022-08-05T00:49:50.988Z,19.20
2022-08-05T00:54:56.821Z,19.20
2022-08-05T01:00:00.445Z,19.20
2022-08-05T01:05:05.089Z,19.20
2022-08-05T01:10:17.837Z,19.20
2022-08-05T01:15:35.719Z,19.30
2022-08-05T01:20:51.162Z,19.30
2022-08-05T01:26:34.601Z,19.30
2022-08-05T01:31:45.363Z,19.20
2022-08-05T01:36:52.262Z,19.20
2022-08-05T01:41:57.588Z,19.20
2022-08-05T01:47:05.199Z,19.10
2022-08-05T01:52:17.464Z,19.10
2022-08-05T01:58:10.131Z,19.10
2022-08-05T02:02:56.221Z,19.10
2022-08-05T02:08:01.626Z,19.00
2022-08-05T02:13:16.135Z,19.00
2022-08-05T02:18:31.307Z,18.90
2022-08-05T02:23:40.067Z,18.80
2022-08-05T02:28:45.909Z,18.70
2022-08-05T02:33:57.557Z,18.50
2022-08-05T02:39:08.772Z,18.30
2022-08-05T02:44:14.922Z,18.20
2022-08-05T02:49:22.418Z,18.10
2022-08-05T02:54:35.983Z,18.00
2022-08-05T02:59:47.892Z,17.90
2022-08-05T03:04:57.494Z,17.90
2022-08-05T03:10:01.343Z,17.80
2022-08-05T03:15:07.679Z,17.80
2022-08-05T03:20:14.701Z,17.70
2022-08-05T03:25:32.442Z,17.70
2022-08-05T03:30:41.213Z,17.50
2022-08-05T03:35:48.742Z,17.60
2022-08-05T03:40:54.078Z,17.60
2022-08-05T03:46:01.479Z,17.50
2022-08-05T03:52:36.629Z,17.50
2022-08-05T03:56:42.713Z,17.40
2022-08-05T04:01:50.330Z,17.40
2022-08-05T04:06:56.133Z,17.30
2022-08-05T04:12:01.598Z,17.30
2022-08-05T04:17:05.786Z,17.30
2022-08-05T04:22:12.055Z,17.30
2022-08-05T04:27:16.657Z,17.20
2022-08-05T04:32:31.267Z,17.20
2022-08-05T04:38:02.555Z,17.20
2022-08-05T04:43:02.055Z,17.20
2022-08-05T04:48:07.215Z,17.20
2022-08-05T04:53:21.454Z,17.20
2022-08-05T04:58:25.353Z,17.20
2022-08-05T05:03:29.524Z,17.20
2022-08-05T05:08:49.947Z,17.10
2022-08-05T05:13:55.198Z,17.10
2022-08-05T05:19:18.941Z,17.10
2022-08-05T05:24:56.215Z,17.10
2022-08-05T05:30:04.606Z,17.20
2022-08-05T05:35:09.518Z,17.10
2022-08-05T05:40:16.297Z,17.10
2022-08-05T05:45:24.785Z,17.10
2022-08-05T05:50:28.921Z,17.30
2022-08-05T05:55:52.450Z,17.30
2022-08-05T06:01:02.066Z,17.40
2022-08-05T06:06:15.536Z,17.50
2022-08-05T06:11:20.592Z,17.60
2022-08-05T06:16:28.396Z,17.60
2022-08-05T06:21:37.385Z,17.80
2022-08-05T06:26:52.121Z,17.90
2022-08-05T06:31:56.159Z,18.10
2022-08-05T06:37:03.309Z,18.20
2022-08-05T06:42:08.568Z,18.40
2022-08-05T06:47:29.945Z,18.50
2022-08-05T06:52:37.872Z,18.60
2022-08-05T06:58:03.858Z,18.80
2022-08-05T07:03:09.621Z,19.00
2022-08-05T07:08:13.619Z,19.10
2022-08-05T07:13:56.901Z,19.20
2022-08-05T07:19:00.151Z,19.30
2022-08-05T07:24:11.150Z,19.50
2022-08-05T07:29:17.092Z,19.60
2022-08-05T07:34:21.259Z,19.80
2022-08-05T07:40:26.641Z,19.90
2022-08-05T07:44:53.804Z,20.10
2022-08-05T07:49:57.416Z,20.30
2022-08-05T07:55:02.866Z,20.50
2022-08-05T08:00:20.828Z,20.70
2022-08-05T08:05:26.654Z,20.80
2022-08-05T08:10:30.481Z,20.80
2022-08-05T08:16:34.489Z,21.00
2022-08-05T08:21:02.713Z,21.20
2022-08-05T08:26:08.094Z,21.40
2022-08-05T08:31:14.583Z,21.50
2022-08-05T08:36:39.009Z,21.70
2022-08-05T08:41:51.824Z,21.80
2022-08-05T08:47:22.351Z,22.00
2022-08-05T08:52:33.357Z,22.20
2022-08-05T08:57:42.373Z,22.30
2022-08-05T09:03:03.174Z,22.40
2022-08-05T09:08:08.102Z,22.70
2022-08-05T09:13:15.485Z,23.10
2022-08-05T09:18:21.143Z,23.70
2022-08-05T09:23:27.334Z,24.40
2022-08-05T09:28:41.982Z,25.40
2022-08-05T09:33:51.620Z,26.10
2022-08-05T09:38:58.473Z,26.70
2022-08-05T09:44:02.323Z,27.40
2022-08-05T09:49:54.568Z,27.80
2022-08-05T09:54:55.711Z,27.50
2022-08-05T10:00:04.746Z,27.90
2022-08-05T10:05:15.402Z,28.10
2022-08-05T10:10:28.204Z,28.10
2022-08-05T10:15:38.635Z,28.90
2022-08-05T10:20:48.838Z,29.60
2022-08-05T10:25:52.783Z,30.50
2022-08-05T10:32:53.842Z,30.40
2022-08-05T10:36:23.734Z,30.40
2022-08-05T10:41:46.482Z,30.70
2022-08-05T10:46:54.007Z,30.90
2022-08-05T10:52:02.539Z,31.10
2022-08-05T10:57:06.868Z,31.60
2022-08-05T11:02:14.476Z,32.30
2022-08-05T11:08:01.792Z,32.90
2022-08-05T11:13:01.128Z,33.20
2022-08-05T11:18:11.695Z,33.80
2022-08-05T11:24:04.886Z,34.30
2022-08-05T11:29:37.158Z,34.10
2022-08-05T11:34:51.350Z,34.40
2022-08-05T11:40:02.814Z,35.00
2022-08-05T11:45:23.074Z,35.00
2022-08-05T11:50:39.349Z,34.80
2022-08-05T11:55:56.400Z,34.50
2022-08-05T12:01:03.828Z,33.80
2022-08-05T12:06:13.324Z,32.80
2022-08-05T12:11:23.539Z,32.70
2022-08-05T12:16:34.982Z,32.80
2022-08-05T12:21:47.907Z,32.40
2022-08-05T12:26:54.784Z,32.40
2022-08-05T12:32:01.732Z,32.20
2022-08-05T12:37:17.379Z,32.60
2022-08-05T12:42:30.791Z,33.00
2022-08-05T12:47:36.025Z,33.40
2022-08-05T12:52:42.714Z,33.30
2022-08-05T12:58:50.693Z,33.40
2022-08-05T13:03:12.324Z,33.30
2022-08-05T13:08:19.433Z,33.30
2022-08-05T13:14:06.342Z,33.30
2022-08-05T13:18:53.042Z,32.50
2022-08-05T13:24:01.653Z,32.50
2022-08-05T13:29:09.516Z,32.60
2022-08-05T13:34:21.275Z,33.00
2022-08-05T13:40:15.774Z,33.00
2022-08-05T13:44:54.993Z,32.90
2022-08-05T13:49:59.182Z,32.90
2022-08-05T13:55:02.830Z,33.10
2022-08-05T14:00:14.369Z,33.00
2022-08-05T14:05:48.261Z,32.80
2022-08-05T14:10:43.320Z,32.80
2022-08-05T14:16:05.386Z,32.70
2022-08-05T14:22:07.295Z,32.30
2022-08-05T14:26:51.391Z,31.80
2022-08-05T14:32:12.482Z,31.80
2022-08-05T14:37:19.620Z,31.50
2022-08-05T14:42:26.405Z,31.00
2022-08-05T14:48:02.820Z,30.40
2022-08-05T14:52:57.679Z,30.10
2022-08-05T14:58:02.738Z,29.50
2022-08-05T15:03:17.495Z,29.00
2022-08-05T15:08:57.723Z,28.50
2022-08-05T15:13:46.612Z,28.10
2022-08-05T15:18:55.164Z,27.80
2022-08-05T15:23:58.760Z,27.50
2022-08-05T15:29:02.618Z,27.20
2022-08-05T15:34:31.985Z,27.00
2022-08-05T15:41:01.898Z,26.80
2022-08-05T15:44:55.079Z,26.50
2022-08-05T15:50:00.273Z,26.30
2022-08-05T15:55:05.479Z,26.20
2022-08-05T16:00:12.067Z,26.00
2022-08-05T16:05:17.249Z,25.90
2022-08-05T16:10:25.572Z,25.70
2022-08-05T16:15:32.522Z,25.60
2022-08-05T16:20:38.866Z,25.50
2022-08-05T16:25:42.437Z,25.40
2022-08-05T16:30:48.628Z,25.40
2022-08-05T16:35:55.631Z,25.30
2022-08-05T16:41:02.338Z,25.10
2022-08-05T16:46:25.975Z,25.00
2022-08-05T16:51:42.745Z,24.90
2022-08-05T16:56:54.043Z,24.80
2022-08-05T17:01:57.688Z,24.70
2022-08-05T17:07:11.477Z,24.60
2022-08-05T17:12:16.198Z,24.50
2022-08-05T17:17:19.943Z,24.30
2022-08-05T17:22:28.070Z,24.20
2022-08-05T17:27:33.541Z,24.10
2022-08-05T17:32:38.374Z,24.00
2022-08-05T17:37:48.389Z,24.00
2022-08-05T17:42:53.076Z,23.90
2022-08-05T17:47:57.257Z,23.80
2022-08-05T17:53:04.916Z,23.70
2022-08-05T17:58:12.418Z,23.60
2022-08-05T18:03:56.464Z,23.50
2022-08-05T18:08:44.901Z,23.50
2022-08-05T18:13:48.725Z,23.40
2022-08-05T18:18:52.414Z,23.30
2022-08-05T18:23:57.399Z,23.20
2022-08-05T18:29:01.536Z,23.20
2022-08-05T18:34:06.381Z,23.10
2022-08-05T18:39:42.448Z,23.00
2022-08-05T18:44:51.509Z,22.90
2022-08-05T18:50:17.564Z,22.70
2022-08-05T18:55:23.440Z,22.70
2022-08-05T19:00:28.931Z,22.50
2022-08-05T19:06:13.455Z,22.50
2022-08-05T19:11:04.621Z,22.40
2022-08-05T19:16:25.495Z,22.30
2022-08-05T19:21:34.250Z,22.20
2022-08-05T19:26:54.820Z,22.10
2022-08-05T19:31:59.571Z,22.00
2022-08-05T19:37:03.509Z,21.90
2022-08-05T19:42:09.188Z,21.80
2022-08-05T19:47:16.170Z,21.60
2022-08-05T19:52:31.483Z,21.50
2022-08-05T19:57:48.849Z,21.40
2022-08-05T20:03:01.098Z,21.40
2022-08-05T20:08:12.546Z,21.30
2022-08-05T20:13:30.380Z,21.20
2022-08-05T20:18:43.380Z,21.10
2022-08-05T20:23:51.625Z,21.00
2022-08-05T20:29:00.729Z,21.00
2022-08-05T20:34:04.567Z,20.90
2022-08-05T20:39:13.109Z,20.80
2022-08-05T20:44:30.456Z,20.70
2022-08-05T20:49:39.729Z,20.60
2022-08-05T20:54:59.897Z,20.60
2022-08-05T21:00:40.150Z,20.50
2022-08-05T21:05:54.034Z,20.40
2022-08-05T21:10:59.284Z,20.30
2022-08-05T21:16:05.858Z,20.30
2022-08-05T21:21:09.534Z,20.20
2022-08-05T21:26:14.540Z,20.10
2022-08-05T21:31:20.401Z,20.00
2022-08-05T21:36:29.800Z,19.90
2022-08-05T21:41:35.482Z,19.80
2022-08-05T21:46:40.736Z,19.80
2022-08-05T21:52:22.923Z,19.70
2022-08-05T21:57:30.265Z,19.60
2022-08-05T22:02:35.105Z,19.50
2022-08-05T22:07:58.812Z,19.40
2022-08-05T22:13:09.227Z,19.30
2022-08-05T22:18:28.219Z,19.30
2022-08-05T22:24:02.792Z,19.10
2022-08-05T22:29:12.327Z,19.10
2022-08-05T22:34:25.619Z,19.00
2022-08-05T22:39:35.052Z,18.90
2022-08-05T22:44:38.670Z,18.70
2022-08-05T22:50:17.972Z,18.70
2022-08-05T22:55:19.538Z,18.60
2022-08-05T23:00:24.580Z,18.50
2022-08-05T23:05:31.512Z,18.40
2022-08-05T23:10:39.909Z,18.30
2022-08-05T23:15:43.681Z,18.20
2022-08-05T23:20:55.214Z,18.10
2022-08-05T23:25:58.772Z,18.10
2022-08-05T23:31:16.007Z,18.00
2022-08-05T23:36:28.237Z,17.90
2022-08-05T23:41:34.271Z,17.80
2022-08-05T23:46:41.163Z,17.70
2022-08-05T23:52:05.708Z,17.60
2022-08-05T23:57:09.982Z,17.50
